createdAt,value
2022-12-16T00:00:29.756Z,40.50
2022-12-16T00:03:04.817Z,40.20
2022-12-16T00:05:33.488Z,40.40
2022-12-16T00:08:01.945Z,40.70
2022-12-16T00:10:51.853Z,40.80
2022-12-16T00:13:20.652Z,40.10
2022-12-16T00:15:51.738Z,40.30
2022-12-16T00:18:20.517Z,39.90
2022-12-16T00:20:53.190Z,39.70
2022-12-16T00:23:27.223Z,39.50
2022-12-16T00:25:57.322Z,39.00
2022-12-16T00:28:26.279Z,39.00
2022-12-16T00:30:57.050Z,39.10
2022-12-16T00:33:27.675Z,38.70
2022-12-16T00:35:57.282Z,38.50
2022-12-16T00:38:27.937Z,38.40
2022-12-16T00:40:57.900Z,38.10
2022-12-16T00:43:28.632Z,38.40
2022-12-16T00:45:58.419Z,37.90
2022-12-16T00:48:27.056Z,38.10
2022-12-16T00:50:56.566Z,37.40
2022-12-16T00:53:26.526Z,37.10
2022-12-16T00:56:05.600Z,37.10
2022-12-16T00:58:34.423Z,36.90
2022-12-16T01:01:03.791Z,37.00
2022-12-16T01:03:32.533Z,37.10
2022-12-16T01:06:01.279Z,36.50
2022-12-16T01:08:29.776Z,36.80
2022-12-16T01:10:59.071Z,36.90
2022-12-16T01:13:29.161Z,36.60
2022-12-16T01:16:02.405Z,36.40
2022-12-16T01:18:31.991Z,36.50
2022-12-16T01:21:05.521Z,36.60
2022-12-16T01:23:34.790Z,36.70
2022-12-16T01:26:08.393Z,36.10
2022-12-16T01:28:38.385Z,36.20
2022-12-16T01:31:07.149Z,36.50
2022-12-16T01:33:38.601Z,36.30
2022-12-16T01:36:09.865Z,35.90
2022-12-16T01:38:38.939Z,36.00
2022-12-16T01:41:07.686Z,36.10
2022-12-16T01:43:40.658Z,36.10
2022-12-16T01:46:17.818Z,36.50
2022-12-16T01:48:53.662Z,36.20
2022-12-16T01:51:31.693Z,36.20
2022-12-16T01:54:06.792Z,36.10
2022-12-16T01:56:41.035Z,35.80
2022-12-16T01:59:12.899Z,35.70
2022-12-16T02:01:41.666Z,35.60
2022-12-16T02:04:10.462Z,36.00
2022-12-16T02:06:44.071Z,36.40
2022-12-16T02:09:16.244Z,36.70
2022-12-16T02:12:15.248Z,36.70
2022-12-16T02:15:16.485Z,37.10
2022-12-16T02:17:57.845Z,37.20
2022-12-16T02:21:07.824Z,37.10
2022-12-16T02:24:36.619Z,37.00
2022-12-16T02:27:47.035Z,37.20
2022-12-16T02:30:48.997Z,37.70
2022-12-16T02:34:14.256Z,38.10
2022-12-16T02:37:12.101Z,38.30
2022-12-16T02:39:49.688Z,38.20
2022-12-16T02:42:31.838Z,38.40
2022-12-16T02:45:05.954Z,38.50
2022-12-16T02:47:35.941Z,38.70
2022-12-16T02:50:05.255Z,38.90
2022-12-16T02:52:36.594Z,38.90
2022-12-16T02:55:10.269Z,38.90
2022-12-16T02:58:06.545Z,39.30
2022-12-16T03:00:53.576Z,38.60
2022-12-16T03:03:33.904Z,38.40
2022-12-16T03:06:04.092Z,38.60
2022-12-16T03:08:38.155Z,38.40
2022-12-16T03:11:08.903Z,38.40
2022-12-16T03:13:42.895Z,37.80
2022-12-16T03:16:15.398Z,37.70
2022-12-16T03:18:50.430Z,37.40
2022-12-16T03:21:22.652Z,37.10
2022-12-16T03:23:58.745Z,36.80
2022-12-16T03:26:34.578Z,36.80
2022-12-16T03:29:10.822Z,36.50
2022-12-16T03:31:45.120Z,36.60
2022-12-16T03:34:26.829Z,36.40
2022-12-16T03:37:02.186Z,36.40
2022-12-16T03:39:34.340Z,36.70
2022-12-16T03:42:04.867Z,36.80
2022-12-16T03:44:37.183Z,37.10
2022-12-16T03:47:06.604Z,36.80
2022-12-16T03:49:36.510Z,36.70
2022-12-16T03:52:05.400Z,36.70
2022-12-16T03:54:33.954Z,36.70
2022-12-16T03:57:02.562Z,37.00
2022-12-16T03:59:31.096Z,37.70
2022-12-16T04:02:00.274Z,38.00
2022-12-16T04:04:29.291Z,38.20
2022-12-16T04:07:16.398Z,38.20
2022-12-16T04:09:44.884Z,38.50
2022-12-16T04:12:30.589Z,38.70
2022-12-16T04:15:16.569Z,38.90
2022-12-16T04:18:02.543Z,38.80
2022-12-16T04:20:55.216Z,39.00
2022-12-16T04:23:46.624Z,39.70
2022-12-16T04:26:15.413Z,39.30
2022-12-16T04:28:53.640Z,39.60
2022-12-16T04:31:22.385Z,39.60
2022-12-16T04:34:08.497Z,39.60
2022-12-16T04:36:54.341Z,39.40
2022-12-16T04:39:41.747Z,38.90
2022-12-16T04:42:27.698Z,38.80
2022-12-16T04:45:13.643Z,38.50
2022-12-16T04:47:59.828Z,38.60
2022-12-16T04:50:45.757Z,38.60
2022-12-16T04:53:32.129Z,38.40
2022-12-16T04:56:19.684Z,38.30
2022-12-16T04:59:05.701Z,38.20
2022-12-16T05:01:51.679Z,38.10
2022-12-16T05:04:37.592Z,37.60
2022-12-16T05:07:23.385Z,37.40
2022-12-16T05:10:09.360Z,37.50
2022-12-16T05:12:56.372Z,37.80
2022-12-16T05:15:42.579Z,37.70
2022-12-16T05:18:29.596Z,37.50
2022-12-16T05:21:17.085Z,37.70
2022-12-16T05:24:03.624Z,37.50
2022-12-16T05:26:49.812Z,37.70
2022-12-16T05:29:37.350Z,37.90
2022-12-16T05:32:23.357Z,38.10
2022-12-16T05:35:09.452Z,38.30
2022-12-16T05:37:55.394Z,38.40
2022-12-16T05:40:41.701Z,38.50
2022-12-16T05:43:27.646Z,38.40
2022-12-16T05:46:14.818Z,38.20
2022-12-16T05:49:00.736Z,38.70
2022-12-16T05:51:46.829Z,38.60
2022-12-16T05:54:32.696Z,38.40
2022-12-16T05:57:18.876Z,38.30
2022-12-16T06:00:04.779Z,38.10
2022-12-16T06:02:52.203Z,38.20
2022-12-16T06:05:38.292Z,38.00
2022-12-16T06:08:24.220Z,37.40
2022-12-16T06:11:10.103Z,37.70
2022-12-16T06:13:56.274Z,38.00
2022-12-16T06:16:42.165Z,37.80
2022-12-16T06:19:29.493Z,37.60
2022-12-16T06:22:15.496Z,37.40
2022-12-16T06:25:01.427Z,37.30
2022-12-16T06:27:47.513Z,37.10
2022-12-16T06:30:33.352Z,37.30
2022-12-16T06:33:19.268Z,37.20
2022-12-16T06:36:03.126Z,37.50
2022-12-16T06:38:48.972Z,37.80
2022-12-16T06:41:35.246Z,38.20
2022-12-16T06:44:21.282Z,38.60
2022-12-16T06:47:09.406Z,38.70
2022-12-16T06:49:55.517Z,38.60
2022-12-16T06:52:43.035Z,38.40
2022-12-16T06:55:28.966Z,38.70
2022-12-16T06:58:16.875Z,38.90
2022-12-16T07:01:03.886Z,39.10
2022-12-16T07:03:55.361Z,38.90
2022-12-16T07:06:40.998Z,39.10
2022-12-16T07:09:28.576Z,38.90
2022-12-16T07:12:14.592Z,39.00
2022-12-16T07:15:00.549Z,38.90
2022-12-16T07:17:46.528Z,38.80
2022-12-16T07:20:32.594Z,38.60
2022-12-16T07:23:20.048Z,38.50
2022-12-16T07:26:08.637Z,38.20
2022-12-16T07:28:54.692Z,38.20
2022-12-16T07:31:41.182Z,37.80
2022-12-16T07:34:26.988Z,37.70
2022-12-16T07:37:13.042Z,37.50
2022-12-16T07:39:59.042Z,37.50
2022-12-16T07:42:46.737Z,37.20
2022-12-16T07:45:32.692Z,37.30
2022-12-16T07:48:18.730Z,37.10
2022-12-16T07:51:04.830Z,36.90
2022-12-16T07:53:50.845Z,36.80
2022-12-16T07:56:36.935Z,35.80
2022-12-16T07:59:24.580Z,35.70
2022-12-16T08:02:10.713Z,35.60
2022-12-16T08:04:56.867Z,36.20
2022-12-16T08:07:42.981Z,36.00
2022-12-16T08:10:29.229Z,36.20
2022-12-16T08:13:32.203Z,36.30
2022-12-16T08:16:19.640Z,36.40
2022-12-16T08:19:10.754Z,36.30
2022-12-16T08:21:57.385Z,36.30
2022-12-16T08:24:46.952Z,36.50
2022-12-16T08:27:35.701Z,36.40
2022-12-16T08:30:22.132Z,36.70
2022-12-16T08:33:18.346Z,36.50
2022-12-16T08:36:05.530Z,36.50
2022-12-16T08:38:51.837Z,36.10
2022-12-16T08:41:38.861Z,36.20
2022-12-16T08:44:24.881Z,36.70
2022-12-16T08:47:10.941Z,36.20
2022-12-16T08:50:01.642Z,36.30
2022-12-16T08:52:49.414Z,35.90
2022-12-16T08:55:35.795Z,35.80
2022-12-16T08:58:21.893Z,36.10
2022-12-16T09:01:07.446Z,36.00
2022-12-16T09:03:54.220Z,35.50
2022-12-16T09:06:41.592Z,35.10
2022-12-16T09:09:27.879Z,34.20
2022-12-16T09:12:13.921Z,34.00
2022-12-16T09:14:59.893Z,34.20
2022-12-16T09:17:45.923Z,34.30
2022-12-16T09:20:31.849Z,33.50
2022-12-16T09:23:23.005Z,32.70
2022-12-16T09:26:08.929Z,32.80
2022-12-16T09:28:57.162Z,31.40
2022-12-16T09:31:43.091Z,32.10
2022-12-16T09:34:43.544Z,31.90
2022-12-16T09:37:29.876Z,32.10
2022-12-16T09:40:17.151Z,31.70
2022-12-16T09:43:12.559Z,32.80
2022-12-16T09:46:11.534Z,32.70
2022-12-16T09:49:08.117Z,32.40
2022-12-16T09:51:57.526Z,33.30
2022-12-16T09:54:50.426Z,33.10
2022-12-16T09:57:40.427Z,33.40
2022-12-16T10:00:38.848Z,33.10
2022-12-16T10:03:38.363Z,32.40
2022-12-16T10:06:37.262Z,32.60
2022-12-16T10:09:33.184Z,32.30
2022-12-16T10:12:31.828Z,31.80
2022-12-16T10:15:34.680Z,31.30
2022-12-16T10:18:32.935Z,30.10
2022-12-16T10:21:23.936Z,30.60
2022-12-16T10:24:27.094Z,30.60
2022-12-16T10:27:24.290Z,31.40
2022-12-16T10:30:11.867Z,32.60
2022-12-16T10:33:06.295Z,33.00
2022-12-16T10:36:00.969Z,33.20
2022-12-16T10:38:59.366Z,33.20
2022-12-16T10:41:52.086Z,32.80
2022-12-16T10:44:44.795Z,32.70
2022-12-16T10:47:30.869Z,33.00
2022-12-16T10:50:18.346Z,32.70
2022-12-16T10:53:12.913Z,33.40
2022-12-16T10:56:16.974Z,33.30
2022-12-16T10:59:11.605Z,32.50
2022-12-16T11:02:09.523Z,31.80
2022-12-16T11:04:57.382Z,31.70
2022-12-16T11:07:53.391Z,32.50
2022-12-16T11:10:49.682Z,32.10
2022-12-16T11:13:45.829Z,32.50
2022-12-16T11:16:35.986Z,33.30
2022-12-16T11:19:22.889Z,33.60
2022-12-16T11:22:09.230Z,33.30
2022-12-16T11:24:57.139Z,33.20
2022-12-16T11:27:45.781Z,33.00
2022-12-16T11:30:39.504Z,33.40
2022-12-16T11:33:42.597Z,33.80
2022-12-16T11:36:36.644Z,33.60
2022-12-16T11:39:26.192Z,33.60
2022-12-16T11:42:15.338Z,33.30
2022-12-16T11:45:06.853Z,32.90
2022-12-16T11:47:58.350Z,32.80
2022-12-16T11:50:47.249Z,32.80
2022-12-16T11:53:50.937Z,32.60
2022-12-16T11:56:42.579Z,32.20
2022-12-16T11:59:43.555Z,32.40
2022-12-16T12:02:39.749Z,32.30
2022-12-16T12:05:31.021Z,32.20
2022-12-16T12:08:31.559Z,32.40
2022-12-16T12:11:36.564Z,32.30
2022-12-16T12:14:36.230Z,32.40
2022-12-16T12:17:44.322Z,31.70
2022-12-16T12:20:59.067Z,31.60
2022-12-16T12:23:59.604Z,31.70
2022-12-16T12:26:52.184Z,32.30
2022-12-16T12:29:58.326Z,32.40
2022-12-16T12:33:01.115Z,32.70
2022-12-16T12:36:10.046Z,33.00
2022-12-16T12:39:11.090Z,33.20
2022-12-16T12:42:15.782Z,33.00
2022-12-16T12:45:20.605Z,33.30
2022-12-16T12:48:22.263Z,33.60
2022-12-16T12:51:19.910Z,33.60
2022-12-16T13:00:37.610Z,33.30
2022-12-16T13:06:08.300Z,33.30
2022-12-16T13:09:13.136Z,33.70
2022-12-16T13:12:42.488Z,34.20
2022-12-16T13:15:38.500Z,34.30
2022-12-16T13:18:44.121Z,35.10
2022-12-16T13:22:06.386Z,35.30
2022-12-16T13:25:10.462Z,35.50
2022-12-16T13:28:13.266Z,35.70
2022-12-16T13:31:25.288Z,36.10
2022-12-16T13:34:15.671Z,35.70
2022-12-16T13:37:12.491Z,35.20
2022-12-16T13:40:01.790Z,35.50
2022-12-16T13:43:13.001Z,35.60
2022-12-16T13:46:03.235Z,35.50
2022-12-16T13:48:59.891Z,35.10
2022-12-16T13:52:24.140Z,35.30
2022-12-16T13:55:33.836Z,34.70
2022-12-16T13:58:29.892Z,35.10
2022-12-16T14:01:28.570Z,34.60
2022-12-16T14:04:31.871Z,35.10
2022-12-16T14:07:24.856Z,34.90
2022-12-16T14:10:14.118Z,34.80
2022-12-16T14:13:21.326Z,34.70
2022-12-16T14:16:24.038Z,34.60
2022-12-16T14:19:30.547Z,34.80
2022-12-16T14:22:35.705Z,34.70
2022-12-16T14:25:31.726Z,34.60
2022-12-16T14:28:20.885Z,34.00
2022-12-16T14:31:07.093Z,34.30
2022-12-16T14:33:55.110Z,34.30
2022-12-16T14:36:44.861Z,34.30
2022-12-16T14:39:38.999Z,34.30
2022-12-16T14:42:38.199Z,34.50
2022-12-16T14:45:40.334Z,34.20
2022-12-16T14:48:47.465Z,34.50
2022-12-16T14:51:47.252Z,34.00
2022-12-16T14:54:44.894Z,34.30
2022-12-16T14:57:36.429Z,34.70
2022-12-16T15:00:34.578Z,35.30
2022-12-16T15:03:34.020Z,35.30
2022-12-16T15:06:23.512Z,35.40
2022-12-16T15:09:20.826Z,35.30
2022-12-16T15:12:10.371Z,34.70
2022-12-16T15:15:01.051Z,35.10
2022-12-16T15:17:51.496Z,35.30
2022-12-16T15:20:42.979Z,35.40
2022-12-16T15:23:53.006Z,34.80
2022-12-16T15:26:43.544Z,34.90
2022-12-16T15:29:51.314Z,35.00
2022-12-16T15:32:55.062Z,34.20
2022-12-16T15:35:48.175Z,34.30
2022-12-16T15:38:47.150Z,34.70
2022-12-16T15:41:48.934Z,34.50
2022-12-16T15:44:36.832Z,34.40
2022-12-16T15:47:24.262Z,34.20
2022-12-16T15:50:10.936Z,33.90
2022-12-16T15:53:00.693Z,33.70
2022-12-16T15:55:52.303Z,33.60
2022-12-16T15:58:46.551Z,33.50
2022-12-16T16:01:35.896Z,33.30
2022-12-16T16:04:22.965Z,33.20
2022-12-16T16:07:11.632Z,33.40
2022-12-16T16:09:59.178Z,33.50
2022-12-16T16:12:45.471Z,34.00
2022-12-16T16:15:33.834Z,34.40
2022-12-16T16:18:23.267Z,34.60
2022-12-16T16:21:10.773Z,34.20
2022-12-16T16:23:56.599Z,34.50
2022-12-16T16:26:46.233Z,34.60
2022-12-16T16:29:32.723Z,34.70
2022-12-16T16:32:20.932Z,35.20
2022-12-16T16:35:07.001Z,34.80
2022-12-16T16:37:53.228Z,34.90
2022-12-16T16:40:45.782Z,34.70
2022-12-16T16:43:32.435Z,34.70
2022-12-16T16:46:18.830Z,34.60
2022-12-16T16:49:06.373Z,34.50
2022-12-16T16:51:52.266Z,34.80
2022-12-16T16:54:38.465Z,34.70
2022-12-16T16:57:27.171Z,34.80
2022-12-16T17:00:13.182Z,34.80
2022-12-16T17:02:59.212Z,34.60
2022-12-16T17:05:46.676Z,34.00
2022-12-16T17:08:32.696Z,34.10
2022-12-16T17:11:18.578Z,33.60
2022-12-16T17:14:04.471Z,33.40
2022-12-16T17:16:50.396Z,33.50
2022-12-16T17:19:36.376Z,33.60
2022-12-16T17:22:25.989Z,33.60
2022-12-16T17:25:11.951Z,33.60
2022-12-16T17:28:02.445Z,33.50
2022-12-16T17:30:47.811Z,33.50
2022-12-16T17:33:34.829Z,33.30
2022-12-16T17:36:21.143Z,33.20
2022-12-16T17:39:09.652Z,33.40
2022-12-16T17:41:55.688Z,33.20
2022-12-16T17:44:44.097Z,33.10
2022-12-16T17:47:30.460Z,33.20
2022-12-16T17:50:19.151Z,33.10
2022-12-16T17:53:06.028Z,32.60
2022-12-16T17:55:54.333Z,32.60
2022-12-16T17:58:47.314Z,32.20
2022-12-16T18:01:33.522Z,32.20
2022-12-16T18:04:19.630Z,31.90
2022-12-16T18:07:05.707Z,32.00
2022-12-16T18:09:51.509Z,32.30
2022-12-16T18:12:39.596Z,31.60
2022-12-16T18:15:26.930Z,31.50
2022-12-16T18:18:12.901Z,31.00
2022-12-16T18:20:58.930Z,31.10
2022-12-16T18:23:48.412Z,30.90
2022-12-16T18:26:35.101Z,30.90
2022-12-16T18:29:22.810Z,30.20
2022-12-16T18:32:08.835Z,31.40
2022-12-16T18:34:55.291Z,31.30
2022-12-16T18:37:42.523Z,30.80
2022-12-16T18:40:29.695Z,31.50
2022-12-16T18:43:15.728Z,30.90
2022-12-16T18:46:11.987Z,30.60
2022-12-16T18:48:58.051Z,30.50
2022-12-16T18:51:44.207Z,30.30
2022-12-16T18:54:30.201Z,30.20
2022-12-16T18:57:16.531Z,30.30
2022-12-16T19:00:02.670Z,30.00
2022-12-16T19:02:50.209Z,29.90
2022-12-16T19:05:36.479Z,30.40
2022-12-16T19:08:22.799Z,31.00
2022-12-16T19:11:17.196Z,31.10
2022-12-16T19:14:03.125Z,31.50
2022-12-16T19:16:49.179Z,32.30
2022-12-16T19:19:36.696Z,32.70
2022-12-16T19:22:19.223Z,32.80
2022-12-16T19:25:04.993Z,33.10
2022-12-16T19:27:50.976Z,33.30
2022-12-16T19:30:38.210Z,33.20
2022-12-16T19:33:24.649Z,33.10
2022-12-16T19:36:15.463Z,33.10
2022-12-16T19:39:01.617Z,33.40
2022-12-16T19:41:59.177Z,33.30
2022-12-16T19:44:44.994Z,33.50
2022-12-16T19:47:31.242Z,33.20
2022-12-16T19:50:17.405Z,33.30
2022-12-16T19:53:04.869Z,33.30
2022-12-16T19:55:53.040Z,33.10
2022-12-16T19:58:41.660Z,32.80
2022-12-16T20:01:28.429Z,32.10
2022-12-16T20:04:14.549Z,32.30
2022-12-16T20:06:59.950Z,32.30
2022-12-16T20:09:47.389Z,32.50
2022-12-16T20:12:33.371Z,32.40
2022-12-16T20:15:19.534Z,32.90
2022-12-16T20:18:05.500Z,32.80
2022-12-16T20:20:51.851Z,32.40
2022-12-16T20:23:38.252Z,32.20
2022-12-16T20:26:31.407Z,32.40
2022-12-16T20:29:17.201Z,32.50
2022-12-16T20:32:11.659Z,32.40
2022-12-16T20:34:57.483Z,32.20
2022-12-16T20:37:43.612Z,32.30
2022-12-16T20:40:30.017Z,32.20
2022-12-16T20:43:17.501Z,32.20
2022-12-16T20:46:03.540Z,32.10
2022-12-16T20:48:49.511Z,30.90
2022-12-16T20:51:35.586Z,30.90
2022-12-16T20:54:21.404Z,31.20
2022-12-16T20:57:12.498Z,31.20
2022-12-16T21:00:12.282Z,31.20
2022-12-16T21:02:58.818Z,31.60
2022-12-16T21:05:45.003Z,31.40
2022-12-16T21:08:45.717Z,31.20
2022-12-16T21:11:34.412Z,31.00
2022-12-16T21:14:20.261Z,30.90
2022-12-16T21:17:07.737Z,31.00
2022-12-16T21:19:53.984Z,31.10
2022-12-16T21:22:41.944Z,30.90
2022-12-16T21:25:28.422Z,30.80
2022-12-16T21:28:16.446Z,31.20
2022-12-16T21:31:02.928Z,31.80
2022-12-16T21:33:50.386Z,31.60
2022-12-16T21:36:36.602Z,32.50
2022-12-16T21:39:23.095Z,32.70
2022-12-16T21:42:09.007Z,32.90
2022-12-16T21:44:56.352Z,33.60
2022-12-16T21:47:42.601Z,33.70
2022-12-16T21:50:29.796Z,34.60
2022-12-16T21:53:15.810Z,35.00
2022-12-16T21:56:01.685Z,35.50
2022-12-16T21:58:47.768Z,35.90
2022-12-16T22:01:34.083Z,35.80
2022-12-16T22:04:20.175Z,35.50
2022-12-16T22:07:07.524Z,35.20
2022-12-16T22:09:53.585Z,35.50
2022-12-16T22:12:42.745Z,35.20
2022-12-16T22:15:29.532Z,35.30
2022-12-16T22:18:15.797Z,35.50
2022-12-16T22:21:01.816Z,35.80
2022-12-16T22:23:49.201Z,36.10
2022-12-16T22:26:35.388Z,36.10
2022-12-16T22:29:21.768Z,36.70
2022-12-16T22:32:07.896Z,36.50
2022-12-16T22:34:53.866Z,36.20
2022-12-16T22:37:41.561Z,35.50
2022-12-16T22:40:29.849Z,35.60
2022-12-16T22:43:15.799Z,35.40
2022-12-16T22:46:02.282Z,35.70
2022-12-16T22:49:00.615Z,35.70
2022-12-16T22:51:46.735Z,36.10
2022-12-16T22:54:33.012Z,37.10
2022-12-16T22:57:20.452Z,37.70
2022-12-16T23:00:06.463Z,37.50
2022-12-16T23:02:52.893Z,36.90
2022-12-16T23:05:42.132Z,37.80
2022-12-16T23:08:28.266Z,38.10
2022-12-16T23:11:17.246Z,38.00
2022-12-16T23:14:09.890Z,37.80
2022-12-16T23:16:55.683Z,37.40
2022-12-16T23:19:42.594Z,36.70
2022-12-16T23:22:28.744Z,36.70
2022-12-16T23:25:14.801Z,36.60
2022-12-16T23:28:00.881Z,36.20
2022-12-16T23:30:48.307Z,35.80
2022-12-16T23:33:34.786Z,35.80
2022-12-16T23:36:21.257Z,36.10
2022-12-16T23:39:07.266Z,36.30
2022-12-16T23:41:53.418Z,37.30
2022-12-16T23:44:42.893Z,37.60
2022-12-16T23:47:30.399Z,38.10
2022-12-16T23:50:16.550Z,37.90
2022-12-16T23:53:02.585Z,38.10
2022-12-16T23:55:48.946Z,37.80
2022-12-16T23:58:34.720Z,37.80
